Vlieland Island, Netherlands
Current Conditions -  °F | °C
As of 1:25 AM on Saturday 29 Nov 2014 (Local Time) from EHVL Reporting Station
Haze Haze  
Wind Chill: 26°   Ceiling: Unl
Heat Index: 37°   Visibility: 4mi
Dew Point: 34°   Wind: 26mph
Humidity: 87%   Direction: 110°ESE
Pressure: 29.94"   Gusts: NA
Location:  53.25°N, 4.92°E
Report Text: EHVL 290025Z AUTO 11023KT 6000 BR SCT350 03/01 Q1014 WHT
Loading
Personal Weather Stations






























Interactive Weather Map New forecast layout! Learn more

10-Day Weather Forecast

Advertisements
Track Severe Weather on mobile